x

Shumagin Islands - 85nm South Of Sand Point, Ak (46075) Wave Buoy

8:50 - Wed 22nd Oct 2014 All times are UTC.

  • Sig Wave height 11.2ft
  • Peak Period 10s
  • Average Period 7s
  • Wind
    27mph, 34mph gusts
  • Sea Temp 47°f
  • Ar Temp 41°f
  • Sea Pressure 995.1mb

More Historic Weather Station data

Upgrade to MSW Pro to gain access to the past 30 days of data for over 8000 Wavebouys and Weather Stations around the globe.

Join Pro

Comparision Forecast

View Surf forecast
   
Qua 10/22 8:50 11ft 10s 7s 27 34 mph 995.1mb 47f 41f
7:50 11ft 10s 7s 29 36 mph 995.1mb 47f 40f
6:50 12ft 9s 7s 27 34 mph 995mb 47f 41f
5:50 10ft 10s 6s 27 34 mph 995mb 47f 42f
4:50 11.5ft 10s 7s 25 31 mph 995.1mb 47f 41f
3:50 12.5ft 10s 7s 29 38 mph 994.8mb 47f 40f
2:50  -   -   -  29 36 mph 994.7mb 47f 41f
1:50 13.5ft 11s 7s 27 34 mph 994.7mb 47f 40f
12:50 11.5ft 10s 7s 25 29 mph 994.8mb 47f 41f
Ter 10/21 11:50 10ft 10s 7s 25 29 mph 994.7mb 48f 40f
10:50 10.5ft 9s 7s 22 27 mph 994.7mb 47f 42f
9:50 10ft 9s 7s 22 27 mph 994.7mb 47f 41f
8:50 10ft 8s 7s 25 29 mph 994.3mb 47f 42f
7:50 10.5ft 10s 7s 25 29 mph 994.2mb 47f 41f
6:50  -   -   -  27 31 mph 994mb 47f 40f
5:50 10ft 10s 6s 27 34 mph 993.2mb 47f 42f
4:50 9ft 9s 6s 20 25 mph 993.2mb 47f 40f
3:50 9ft 10s 6s 29 38 mph 993.3mb 47f 38f
2:50 10ft 8s 6s 25 31 mph 992.9mb 47f 41f
1:50 10.5ft 9s 7s 25 31 mph 992.6mb 47f 41f
12:50 9ft 9s 6s 25 29 mph 992.2mb 47f 41f
11:50 9ft 9s 6s 22 27 mph 992mb 47f 41f
10:50 8ft 9s 7s 16 20 mph 991.8mb 47f 41f
9:50 9ft 8s 7s 20 25 mph 991.5mb 47f 41f
8:50 8.5ft 8s 6s 18 22 mph 991.5mb 47f 40f
7:50 9ft 10s 6s 20 27 mph 991.1mb 47f 41f
6:50 8.5ft 9s 6s 25 27 mph 990.6mb 47f 41f
5:50 9ft 10s 7s 20 27 mph 990.3mb 47f 41f
4:50 9ft 9s 7s 11 16 mph 990.3mb 47f 38f
3:50 8ft 9s 6s 22 27 mph 989.8mb 47f 41f
2:50 8ft 9s 6s 18 22 mph 989.9mb 47f 42f
1:50 7.5ft 7s 6s 22 27 mph 990mb 47f 41f
12:50 7ft 6s 6s 22 29 mph 990.3mb 47f 41f
Seg 10/20 11:50 5.5ft 6s 6s 22 29 mph 990.5mb 47f 40f
10:50 5ft 5s 5s 13 16 mph 991.1mb 47f 39f
9:50 5ft 6s 5s 16 20 mph 991.3mb 47f 40f
8:50 4.5ft 5s 5s 27 31 mph 991.5mb 47f 38f
7:50 4.5ft 5s 5s 18 22 mph 991.6mb 47f 40f
6:50 4ft 6s 5s 18 22 mph 991.6mb 47f 40f
5:50 4ft 6s 5s 16 22 mph 991.5mb 48f 39f
4:50 4.5ft 5s 5s 16 20 mph 991.6mb 48f 39f
3:50 4.5ft 5s 5s 16 22 mph 991.6mb 48f 40f
2:50 4.5ft 5s 5s 18 27 mph 991.5mb 48f 41f
1:50 4.5ft 5s 5s 20 25 mph 991.4mb 48f 40f
12:50 4ft 10s 5s 18 22 mph 991.6mb 48f 40f
11:50 4ft 4s 5s 9 11 mph 991.5mb 48f 40f
10:50 4ft 11s 5s 13 18 mph 991.4mb 47f 40f
9:50 4ft 10s 5s 20 22 mph 991.3mb 47f 40f
8:50 3.5ft 10s 6s 11 16 mph 991.3mb 47f 40f
7:50 4.5ft 11s 7s 13 22 mph 991.3mb 47f 41f
6:50 4ft 11s 6s 11 13 mph 991.5mb 48f 41f
5:50 4.5ft 11s 6s 11 13 mph 992.1mb 48f 41f
4:50 5ft 11s  -  11 13 mph 992.5mb 48f 41f
3:50 5ft 11s 7s 9 11 mph 993.2mb 48f 41f
2:50 5.5ft 11s 6s 9 13 mph 994mb 47f 41f
1:50 6ft 11s 6s 7 11 mph 994.9mb 47f 41f
12:50 5.5ft 11s 6s 9 11 mph 995.8mb 47f 41f
Dom 10/19 11:50 6ft 8s 6s 9 11 mph 997mb 47f 41f
10:50 6ft 8s 6s 7 9 mph 998.2mb 47f 41f
9:50 6ft 12s 6s 13 16 mph 999.5mb 48f 39f
8:50 6.5ft 11s 6s 11 16 mph 1000.3mb 48f 42f
7:50 7.5ft 13s 6s 13
mph
1001.2mb 49f 41f
6:50 7.5ft 12s 6s 16 18 mph 1001.8mb 49f 40f
5:50 8ft 6s 6s 18 22 mph 1002.3mb 49f 40f
4:50 9ft 8s 6s 20 25 mph 1002.5mb 48f 42f
3:50 9ft 9s 6s 18 22 mph 1003.1mb 48f 41f
2:50 10ft 9s 7s 22 29 mph 1003.5mb 49f 42f
1:50 11ft 10s 7s 25 29 mph 1004mb 49f 42f
12:50 11ft 7s 7s 25 31 mph 1004.4mb 49f 43f
11:50 11.5ft 9s 7s 27 34 mph 1004.2mb 49f 43f
10:50 12ft 9s 7s 29 36 mph 1003.9mb 48f 42f
9:50 12ft 8s 7s 29 36 mph 1003.9mb 49f 43f
8:50 13ft 7s 7s 31 38 mph 1003.9mb 49f 43f
7:50 12ft 8s 6s 25 34 mph 1004.1mb 48f 43f
6:50 12ft 8s 7s 31 36 mph 1003.8mb 49f 42f
5:50 12ft 8s 7s 29 36 mph 1003.6mb 49f 43f
4:50 12.5ft 8s 7s 29 36 mph 1003.2mb 49f 43f
3:50 13ft 8s 7s 31 43 mph 1002.6mb 49f 43f
2:50  -   -   -  34
mph
- - 43f
1:50 14.5ft 8s 7s 36 45 mph 1002.4mb 48f 43f
12:50 15ft 9s 7s 31 38 mph 1002.1mb 49f 43f
Sáb 10/18 11:50 12.5ft 7s 7s 34 40 mph 1001.3mb 48f 43f
10:50 14ft 8s 7s 31 38 mph 1001.2mb 49f 43f
9:50 13ft 8s 7s 34 40 mph 1000.9mb 49f 43f
8:50 12.5ft 8s 7s 31 40 mph 1000.7mb 49f 43f
7:50 12ft 8s 7s 31 38 mph 1000.3mb 49f 43f
6:50 10.5ft 8s 6s 31 38 mph 999.9mb 48f 42f
5:50 11ft 8s 6s 29 36 mph 999.7mb 48f 42f
4:50  -   -   -  31 36 mph 999.5mb 48f 42f
3:50 10ft 8s 6s 31 38 mph 999mb 49f 43f
2:50 11ft 8s 6s 29 40 mph 998.7mb 49f 42f
1:50  -   -   -  29
mph
- - 42f
12:50 11.5ft 15s 7s 27 31 mph 998.5mb 49f 43f
11:50 10.5ft 14s 7s 29 34 mph 998mb 49f 43f
10:50 10ft 15s 7s 25 31 mph 997.9mb 49f 42f